Time;durP1;ratioP1;P1;durP2;ratioP2;P2;SDS_P1;SDS_P2;PMS_P1;PMS_P2;Temp;Humidity;BMP_temperature;BMP_pressure;BME280_temperature;BME280_humidity;BME280_pressure;Samples;Min_cycle;Max_cycle;Signal;HPM_P1;HPM_P2
2022/07/06 00:02:48;;;;;;;8.65;1.13;;;18.30;99.90;;;;;;6296809;28;20052;-75
2022/07/06 00:05:51;;;;;;;5.03;1.23;;;18.30;99.90;;;;;;6298512;28;20508;-75
2022/07/06 00:08:53;;;;;;;5.20;0.90;;;18.50;99.90;;;;;;6291262;28;20052;-75
2022/07/06 00:11:55;;;;;;;3.75;1.05;;;18.60;99.90;;;;;;6299318;28;20040;-75
2022/07/06 00:14:57;;;;;;;6.03;1.05;;;18.60;99.90;;;;;;6297773;28;20135;-75
2022/07/06 00:17:59;;;;;;;5.13;1.08;;;18.70;99.90;;;;;;6297540;28;20128;-75
2022/07/06 00:21:02;;;;;;;3.60;0.90;;;19.10;99.90;;;;;;6298602;28;20052;-75
2022/07/06 00:24:05;;;;;;;3.33;0.82;;;19.30;99.90;;;;;;6298644;28;20079;-75
2022/07/06 00:27:07;;;;;;;4.57;1.00;;;19.30;99.90;;;;;;6298306;28;20056;-76
2022/07/06 00:30:09;;;;;;;4.45;0.88;;;19.30;99.90;;;;;;6296865;28;20043;-75
2022/07/06 00:33:11;;;;;;;2.78;0.60;;;18.60;99.90;;;;;;6298051;28;20406;-75
2022/07/06 00:36:15;;;;;;;3.47;0.80;;;18.10;99.90;;;;;;6297712;28;20045;-75
2022/07/06 00:39:18;;;;;;;;;;;18.20;99.90;;;;;;6292524;28;20040;-75
2022/07/06 00:42:20;;;;;;;2.55;0.70;;;18.40;99.90;;;;;;6297931;28;19920;-75
2022/07/06 00:45:22;;;;;;;3.78;0.82;;;18.50;99.90;;;;;;6296053;28;20063;-74
2022/07/06 00:48:24;;;;;;;3.75;0.60;;;18.60;99.90;;;;;;6298179;28;20055;-75
2022/07/06 00:51:31;;;;;;;3.28;1.00;;;18.60;99.90;;;;;;6297345;28;20493;-75
2022/07/06 00:54:33;;;;;;;3.38;0.70;;;18.60;99.90;;;;;;6297112;28;20524;-75
2022/07/06 00:57:35;;;;;;;3.53;0.60;;;18.60;99.90;;;;;;6298120;28;20052;-75
2022/07/06 01:00:38;;;;;;;2.03;0.57;;;18.50;99.90;;;;;;6296856;28;20153;-75
2022/07/06 01:03:40;;;;;;;4.55;0.73;;;18.50;99.90;;;;;;6287769;28;20060;-75
2022/07/06 01:06:45;;;;;;;4.32;0.80;;;18.30;99.90;;;;;;6290884;28;20056;-75
2022/07/06 01:09:47;;;;;;;3.00;0.80;;;18.20;99.90;;;;;;6296552;28;20416;-75
2022/07/06 01:12:50;;;;;;;2.30;0.88;;;18.00;99.90;;;;;;6297699;28;20056;-75
2022/07/06 01:15:52;;;;;;;4.18;0.90;;;17.80;99.90;;;;;;6295243;28;20482;-75
2022/07/06 01:18:54;;;;;;;3.95;0.80;;;17.70;99.90;;;;;;6295803;28;20397;-75
2022/07/06 01:21:57;;;;;;;3.92;0.85;;;17.50;99.90;;;;;;6305495;28;20060;-75
2022/07/06 01:24:59;;;;;;;3.00;0.70;;;17.30;99.90;;;;;;6271119;28;20049;-75
2022/07/06 01:28:02;;;;;;;4.13;0.93;;;17.30;99.90;;;;;;6271472;28;20059;-75
2022/07/06 01:31:03;;;;;;;3.10;0.90;;;17.30;99.90;;;;;;6290121;28;20067;-75
2022/07/06 01:34:05;;;;;;;2.55;0.80;;;17.20;99.90;;;;;;6296928;28;20501;-74
2022/07/06 01:37:09;;;;;;;3.85;0.82;;;17.20;99.90;;;;;;6297165;28;20478;-75
2022/07/06 01:40:12;;;;;;;4.55;1.08;;;17.10;99.90;;;;;;6295372;28;20066;-75
2022/07/06 01:43:14;;;;;;;3.85;0.63;;;17.10;99.90;;;;;;6297123;28;20060;-75
2022/07/06 01:46:16;;;;;;;3.92;0.82;;;17.10;99.90;;;;;;6296258;28;20071;-75
2022/07/06 01:49:18;;;;;;;2.95;0.70;;;17.10;99.90;;;;;;6295398;28;20074;-75
2022/07/06 01:52:21;;;;;;;2.50;0.70;;;17.20;99.90;;;;;;6295727;28;20071;-75
2022/07/06 01:55:23;;;;;;;2.63;0.75;;;17.20;99.90;;;;;;6295641;28;20048;-75
2022/07/06 01:58:25;;;;;;;2.60;0.40;;;17.40;99.90;;;;;;6294643;28;20110;-74
2022/07/06 02:01:27;;;;;;;4.90;0.50;;;17.50;99.90;;;;;;6295847;28;20055;-75
2022/07/06 02:04:29;;;;;;;3.35;0.65;;;17.70;99.90;;;;;;6285070;28;20060;-75
2022/07/06 02:07:32;;;;;;;2.67;0.52;;;17.60;99.90;;;;;;6286051;28;20044;-75
2022/07/06 02:10:34;;;;;;;2.92;0.90;;;17.70;99.90;;;;;;6295788;28;20048;-75
2022/07/06 02:13:37;;;;;;;3.53;0.80;;;17.80;99.90;;;;;;6295736;28;20049;-75
2022/07/06 02:16:38;;;;;;;4.72;0.98;;;17.90;99.90;;;;;;6271130;28;20490;-76
2022/07/06 02:19:40;;;;;;;4.13;1.02;;;18.00;99.90;;;;;;6272028;28;20048;-75
2022/07/06 02:22:44;;;;;;;1.27;0.40;;;18.10;99.90;;;;;;6294769;28;20045;-75
2022/07/06 02:25:46;;;;;;;3.25;0.77;;;18.20;99.90;;;;;;6271373;28;20076;-75
2022/07/06 02:28:48;;;;;;;4.28;0.73;;;18.20;99.90;;;;;;6282619;28;20044;-75
2022/07/06 02:31:49;;;;;;;2.78;0.70;;;18.30;99.90;;;;;;6295586;28;20048;-75
2022/07/06 02:34:52;;;;;;;4.65;0.77;;;18.40;99.90;;;;;;6286501;28;20053;-75
2022/07/06 02:37:55;;;;;;;3.63;0.73;;;18.70;99.90;;;;;;6295349;28;20095;-75
2022/07/06 02:40:57;;;;;;;4.43;0.90;;;18.70;99.90;;;;;;6296278;28;20476;-76
2022/07/06 02:43:59;;;;;;;2.15;0.65;;;18.60;99.90;;;;;;6295670;28;20067;-75
2022/07/06 02:47:01;;;;;;;3.45;0.80;;;18.40;99.90;;;;;;6294264;28;20045;-75
2022/07/06 02:50:03;;;;;;;2.88;0.75;;;18.50;99.90;;;;;;6295078;28;20053;-75
2022/07/06 02:53:07;;;;;;;2.50;0.80;;;18.20;99.90;;;;;;6295007;28;20074;-75
2022/07/06 02:56:08;;;;;;;6.03;0.90;;;18.10;99.90;;;;;;6293352;28;20051;-75
2022/07/06 02:59:10;;;;;;;3.58;0.60;;;18.10;99.90;;;;;;6294823;28;20075;-74
2022/07/06 03:02:12;;;;;;;7.28;0.95;;;18.10;99.90;;;;;;6295656;28;20394;-75
2022/07/06 03:05:14;;;;;;;4.40;1.00;;;18.40;99.90;;;;;;6294778;28;20045;-75
2022/07/06 03:08:18;;;;;;;3.05;0.70;;;18.30;99.90;;;;;;6294932;28;20045;-75
2022/07/06 03:11:19;;;;;;;4.68;1.05;;;18.20;99.90;;;;;;6294085;28;20056;-74
2022/07/06 03:14:21;;;;;;;2.60;0.70;;;18.20;99.90;;;;;;6295485;28;20509;-75
2022/07/06 03:17:23;;;;;;;3.92;0.68;;;18.20;99.90;;;;;;6294114;28;20398;-75
2022/07/06 03:20:25;;;;;;;4.03;0.80;;;18.40;99.90;;;;;;6296124;28;20056;-74
2022/07/06 03:23:28;;;;;;;3.35;0.50;;;18.30;99.90;;;;;;6295767;28;20055;-74
2022/07/06 03:26:30;;;;;;;4.43;0.80;;;18.00;99.90;;;;;;6296817;28;20075;-75
2022/07/06 03:29:32;;;;;;;3.67;0.75;;;18.00;99.90;;;;;;6299186;28;20056;-74
2022/07/06 03:32:34;;;;;;;3.08;0.70;;;18.20;99.90;;;;;;6298906;28;20052;-74
2022/07/06 03:35:36;;;;;;;3.15;0.63;;;18.30;99.90;;;;;;6299318;28;20052;-74
2022/07/06 03:38:39;;;;;;;2.75;0.50;;;18.30;99.90;;;;;;6299998;28;20075;-74
2022/07/06 03:41:41;;;;;;;2.85;0.60;;;18.40;99.90;;;;;;6299947;28;20040;-75
2022/07/06 03:44:43;;;;;;;2.60;0.63;;;18.50;99.90;;;;;;6298410;28;20052;-74
2022/07/06 03:47:45;;;;;;;2.67;0.55;;;18.50;99.90;;;;;;6298201;28;20046;-74
2022/07/06 03:50:47;;;;;;;4.68;0.75;;;18.50;99.90;;;;;;6299526;28;20048;-74
2022/07/06 03:53:50;;;;;;;3.20;0.73;;;18.30;99.90;;;;;;6298212;28;20048;-75
2022/07/06 03:56:52;;;;;;;3.47;0.63;;;18.20;99.90;;;;;;6297249;28;20048;-75
2022/07/06 03:59:54;;;;;;;4.57;0.95;;;18.30;99.90;;;;;;6299422;28;20053;-75
2022/07/06 04:02:56;;;;;;;3.45;0.70;;;18.30;99.90;;;;;;6297745;28;20052;-75
2022/07/06 04:05:58;;;;;;;3.20;0.60;;;18.30;99.90;;;;;;6299414;28;20045;-76
2022/07/06 04:09:01;;;;;;;2.63;0.63;;;18.20;99.90;;;;;;6299369;28;20489;-75
2022/07/06 04:12:04;;;;;;;3.80;0.75;;;18.00;99.90;;;;;;6296723;28;20048;-75
2022/07/06 04:15:06;;;;;;;6.03;1.00;;;18.00;99.90;;;;;;6299124;28;20049;-75
2022/07/06 04:18:08;;;;;;;3.73;0.90;;;17.80;99.90;;;;;;6298757;28;20055;-76
2022/07/06 04:21:10;;;;;;;2.80;0.55;;;17.40;99.90;;;;;;6298506;28;20044;-75
2022/07/06 04:24:13;;;;;;;5.60;0.90;;;17.30;99.90;;;;;;6299285;28;20044;-75
2022/07/06 04:27:15;;;;;;;2.33;0.88;;;17.10;99.90;;;;;;6301464;28;20417;-75
2022/07/06 04:30:17;;;;;;;3.63;0.85;;;16.90;99.90;;;;;;6299289;28;20059;-75
2022/07/06 04:33:19;;;;;;;6.40;0.85;;;16.70;99.90;;;;;;6299660;28;20041;-75
2022/07/06 04:36:21;;;;;;;4.60;0.82;;;16.60;99.90;;;;;;6299552;28;20048;-75
2022/07/06 04:39:25;;;;;;;3.58;0.80;;;16.50;99.90;;;;;;6296737;28;20053;-75
2022/07/06 04:42:27;;;;;;;3.40;0.85;;;16.60;99.90;;;;;;6298094;28;20049;-75
2022/07/06 04:45:29;;;;;;;5.43;0.80;;;16.60;99.90;;;;;;6286063;28;20052;-75
2022/07/06 04:48:32;;;;;;;3.50;1.10;;;16.70;99.90;;;;;;6297259;28;20048;-75
2022/07/06 04:51:34;;;;;;;4.03;0.97;;;16.70;99.90;;;;;;6297236;28;20053;-75
2022/07/06 04:54:37;;;;;;;5.03;1.00;;;16.90;99.90;;;;;;6298642;28;20478;-74
2022/07/06 04:57:39;;;;;;;3.35;0.90;;;16.80;99.90;;;;;;6297190;28;20048;-74
2022/07/06 05:00:41;;;;;;;3.22;0.88;;;16.50;99.90;;;;;;6295469;28;20397;-74
2022/07/06 05:03:43;;;;;;;7.55;1.08;;;16.60;99.90;;;;;;6285825;28;20306;-74
2022/07/06 05:06:45;;;;;;;8.55;1.45;;;16.60;99.90;;;;;;6298009;28;20059;-74
2022/07/06 05:09:48;;;;;;;6.30;1.38;;;16.50;99.90;;;;;;6296059;28;20139;-75
2022/07/06 05:12:50;;;;;;;9.45;1.10;;;16.50;99.90;;;;;;6293097;28;20048;-74
2022/07/06 05:15:52;;;;;;;6.05;0.90;;;16.70;99.90;;;;;;6296369;28;20080;-74
2022/07/06 05:18:54;;;;;;;7.90;0.98;;;17.30;99.90;;;;;;6297737;28;20051;-75
2022/07/06 05:21:56;;;;;;;3.03;0.75;;;17.70;99.90;;;;;;6296521;28;20052;-75
2022/07/06 05:24:59;;;;;;;3.40;0.68;;;18.10;99.90;;;;;;6297458;28;20063;-75
2022/07/06 05:28:01;;;;;;;2.80;0.55;;;18.60;99.90;;;;;;6297603;28;20044;-74
2022/07/06 05:31:03;;;;;;;4.10;0.85;;;19.00;99.90;;;;;;6294745;28;20055;-75
2022/07/06 05:34:05;;;;;;;2.75;0.82;;;19.40;99.90;;;;;;6296535;28;20413;-74
2022/07/06 05:37:07;;;;;;;2.55;0.65;;;19.80;99.90;;;;;;6296244;28;20052;-75
2022/07/06 05:40:12;;;;;;;4.65;0.55;;;20.00;99.90;;;;;;6295218;28;20408;-75
2022/07/06 05:43:14;;;;;;;4.38;0.70;;;20.40;99.90;;;;;;6297120;28;20048;-75
2022/07/06 05:46:16;;;;;;;5.45;0.90;;;20.50;99.90;;;;;;6294007;28;20060;-75
2022/07/06 05:52:37;;;;;;;3.95;0.75;;;20.10;99.90;;;;;;6296327;28;20040;-75
2022/07/06 05:55:40;;;;;;;3.83;0.65;;;19.70;99.90;;;;;;6297109;28;20090;-75
2022/07/06 05:58:42;;;;;;;6.63;1.35;;;19.70;99.90;;;;;;6295092;28;20050;-75
2022/07/06 06:01:44;;;;;;;4.57;0.95;;;19.70;99.90;;;;;;6295405;28;20048;-76
2022/07/06 06:04:46;;;;;;;10.25;1.33;;;20.20;99.90;;;;;;6296345;28;20052;-76
2022/07/06 06:07:50;;;;;;;5.50;0.98;;;20.40;99.90;;;;;;6295198;28;20053;-75
2022/07/06 06:10:54;;;;;;;4.78;1.08;;;20.50;99.90;;;;;;6294169;28;20088;-75
2022/07/06 06:13:56;;;;;;;3.38;0.68;;;20.30;99.90;;;;;;6294725;28;20256;-76
2022/07/06 06:16:58;;;;;;;5.47;1.05;;;20.40;99.90;;;;;;6293776;28;20145;-85
2022/07/06 06:20:00;;;;;;;3.28;0.40;;;20.30;99.90;;;;;;6311051;28;20409;-77
2022/07/06 06:23:04;;;;;;;47.83;8.15;;;20.40;99.80;;;;;;6295414;28;20049;-76
2022/07/06 06:26:08;;;;;;;12.35;2.10;;;20.70;99.90;;;;;;6294517;28;20056;-76
2022/07/06 06:29:09;;;;;;;51.30;8.80;;;20.70;99.90;;;;;;6293309;28;20071;-76
2022/07/06 06:32:12;;;;;;;5.18;0.60;;;21.20;99.90;;;;;;6293753;28;20677;-81
2022/07/06 06:35:14;;;;;;;4.60;1.20;;;21.70;99.90;;;;;;6282098;28;20138;-80
2022/07/06 06:38:16;;;;;;;5.60;0.80;;;22.00;99.90;;;;;;6284126;28;20474;-80
2022/07/06 06:41:20;;;;;;;3.97;0.90;;;22.10;99.90;;;;;;6292791;28;20052;-80
2022/07/06 06:44:23;;;;;;;3.75;0.55;;;22.20;99.90;;;;;;6293930;28;20049;-80
2022/07/06 06:47:25;;;;;;;2.17;0.50;;;22.30;99.90;;;;;;6293905;28;20048;-80
2022/07/06 06:50:26;;;;;;;1.88;0.77;;;21.90;99.90;;;;;;6294662;28;20064;-80
2022/07/06 06:53:28;;;;;;;3.83;0.60;;;22.10;99.90;;;;;;6294466;28;20059;-80
2022/07/06 06:56:32;;;;;;;2.63;0.77;;;22.20;99.90;;;;;;6294100;28;20501;-80
2022/07/06 06:59:33;;;;;;;4.25;0.88;;;22.20;99.90;;;;;;6294502;28;20049;-79
2022/07/06 07:02:36;;;;;;;3.20;0.77;;;22.10;99.90;;;;;;6299589;28;20528;-80
2022/07/06 07:05:38;;;;;;;2.95;0.47;;;22.10;99.90;;;;;;6301169;28;20056;-80
2022/07/06 07:08:39;;;;;;;3.20;0.50;;;22.10;99.90;;;;;;6298374;28;20512;-80
2022/07/06 07:11:43;;;;;;;2.63;0.52;;;22.10;99.90;;;;;;6300444;28;20044;-80
2022/07/06 07:14:45;;;;;;;1.88;0.32;;;22.10;99.90;;;;;;6274959;28;20057;-80
2022/07/06 07:17:47;;;;;;;4.28;0.73;;;21.90;98.60;;;;;;6282159;28;20493;-80
2022/07/06 07:20:49;;;;;;;4.43;0.68;;;20.00;99.90;;;;;;6301019;28;20075;-79
2022/07/06 07:23:51;;;;;;;1.75;0.30;;;20.30;99.90;;;;;;6300285;28;20599;-80
2022/07/06 07:26:54;;;;;;;3.33;0.60;;;21.00;99.90;;;;;;6298069;28;20075;-80
2022/07/06 07:29:56;;;;;;;4.15;0.50;;;21.50;99.90;;;;;;6298832;28;20128;-81
2022/07/06 07:33:00;;;;;;;3.28;0.40;;;21.60;99.90;;;;;;6298598;28;20056;-80
2022/07/06 07:36:02;;;;;;;1.83;0.40;;;21.80;99.90;;;;;;6300464;28;20044;-80
2022/07/06 07:39:04;;;;;;;2.03;0.45;;;22.00;99.90;;;;;;6297802;28;20051;-80
2022/07/06 07:42:08;;;;;;;2.00;0.50;;;22.10;99.90;;;;;;6299034;28;20403;-80
2022/07/06 07:45:11;;;;;;;2.92;0.40;;;22.30;99.90;;;;;;6299953;28;20056;-80
2022/07/06 07:48:13;;;;;;;3.35;0.57;;;22.40;99.60;;;;;;6297552;28;20059;-81
2022/07/06 07:51:15;;;;;;;3.67;0.40;;;22.50;99.60;;;;;;6299947;28;20126;-80
2022/07/06 07:54:17;;;;;;;1.13;0.20;;;22.50;99.10;;;;;;6298813;28;20045;-81
2022/07/06 07:57:20;;;;;;;3.90;0.50;;;22.50;99.90;;;;;;6297412;28;20063;-80
2022/07/06 08:00:24;;;;;;;1.70;0.40;;;22.60;99.60;;;;;;6297912;28;20080;-80
2022/07/06 08:03:26;;;;;;;2.35;0.57;;;22.60;99.20;;;;;;6294723;28;20051;-80
2022/07/06 08:06:28;;;;;;;1.67;0.35;;;22.70;99.20;;;;;;6299330;28;20045;-80
2022/07/06 08:09:30;;;;;;;1.20;0.30;;;22.50;99.90;;;;;;6297288;28;20052;-80
2022/07/06 08:12:34;;;;;;;2.85;0.50;;;22.60;98.90;;;;;;6298006;28;20525;-80
2022/07/06 08:15:36;;;;;;;2.47;0.50;;;22.90;98.30;;;;;;6299016;28;20044;-80
2022/07/06 08:18:38;;;;;;;1.55;0.32;;;23.00;98.40;;;;;;6294924;28;20056;-80
2022/07/06 08:21:40;;;;;;;1.52;0.50;;;23.10;97.90;;;;;;6297957;28;20418;-80
2022/07/06 08:24:42;;;;;;;3.88;0.50;;;23.20;97.70;;;;;;6297600;28;20040;-80
2022/07/06 08:27:46;;;;;;;3.33;0.50;;;23.30;98.30;;;;;;6295713;28;20045;-80
2022/07/06 08:30:48;;;;;;;;;;;23.10;97.10;;;;;;6297899;28;20098;-80
2022/07/06 08:33:52;;;;;;;3.35;0.30;;;22.90;98.30;;;;;;6314493;28;19973;-80
2022/07/06 08:36:55;;;;;;;2.08;0.50;;;21.00;96.10;;;;;;6298295;28;20044;-79
2022/07/06 08:39:56;;;;;;;3.47;0.63;;;20.00;99.90;;;;;;6297612;28;20394;-80
2022/07/06 08:43:00;;;;;;;5.97;0.90;;;20.00;98.90;;;;;;6296411;28;20052;-79
2022/07/06 08:46:03;;;;;;;1.52;0.30;;;19.20;99.90;;;;;;6295964;28;20492;-80
2022/07/06 08:49:06;;;;;;;1.60;0.45;;;19.60;99.90;;;;;;6294625;28;20078;-80
2022/07/06 08:52:08;;;;;;;;;;;19.60;99.90;;;;;;6296425;28;20052;-80
2022/07/06 08:55:11;;;;;;;2.63;0.50;;;19.50;99.90;;;;;;6298458;28;20010;-80
2022/07/06 08:58:14;;;;;;;2.17;0.30;;;20.10;99.90;;;;;;6272677;28;20395;-81
2022/07/06 09:01:18;;;;;;;2.47;0.73;;;21.00;99.90;;;;;;6273671;28;20060;-80
2022/07/06 09:04:23;;;;;;;3.10;0.30;;;21.70;99.60;;;;;;6295879;28;20041;-81
2022/07/06 09:07:27;;;;;;;3.28;0.50;;;21.70;95.30;;;;;;6297098;28;20052;-83
2022/07/06 09:10:29;;;;;;;2.80;0.57;;;21.30;98.10;;;;;;6296625;28;20051;-80
2022/07/06 09:13:32;;;;;;;1.98;0.30;;;21.50;97.90;;;;;;6295942;28;20044;-82
2022/07/06 09:16:35;;;;;;;2.60;0.60;;;21.80;98.40;;;;;;6296188;28;20048;-80
2022/07/06 09:19:37;;;;;;;2.83;0.40;;;22.10;97.60;;;;;;6296476;28;20049;-80
2022/07/06 09:22:40;;;;;;;4.20;0.68;;;22.10;96.50;;;;;;6295527;28;20090;-81
2022/07/06 09:25:42;;;;;;;2.00;0.63;;;21.70;98.60;;;;;;6296367;28;20097;-80
2022/07/06 09:28:47;;;;;;;1.90;0.30;;;21.90;97.90;;;;;;6281706;28;20049;-80
2022/07/06 09:31:57;;;;;;;2.10;0.47;;;22.30;97.00;;;;;;6296368;28;20121;-80
2022/07/06 09:35:01;;;;;;;2.55;0.50;;;22.70;96.40;;;;;;6295975;28;20052;-82
2022/07/06 09:38:08;;;;;;;2.95;0.55;;;22.70;94.50;;;;;;6295976;28;20052;-81
2022/07/06 09:41:10;;;;;;;4.40;0.40;;;21.50;93.90;;;;;;6295248;28;20053;-80
2022/07/06 09:44:13;;;;;;;2.65;0.40;;;20.30;96.00;;;;;;6295875;28;20245;-80
2022/07/06 09:47:15;;;;;;;;;;;20.80;98.80;;;;;;6297346;28;20050;-80
2022/07/06 09:50:17;;;;;;;1.52;0.40;;;21.00;96.10;;;;;;6297644;28;19924;-81
2022/07/06 09:53:20;;;;;;;2.42;0.30;;;21.50;97.50;;;;;;6293768;28;20052;-80
2022/07/06 09:56:22;;;;;;;2.92;0.57;;;21.20;96.20;;;;;;6296744;28;20055;-80
2022/07/06 09:59:27;;;;;;;3.85;0.60;;;21.40;96.60;;;;;;6295463;28;20056;-79
2022/07/06 10:02:29;;;;;;;2.42;0.40;;;21.50;97.00;;;;;;6295247;28;20059;-81
2022/07/06 10:05:32;;;;;;;2.85;0.40;;;21.40;95.80;;;;;;6295547;28;20394;-82
2022/07/06 10:08:35;;;;;;;2.70;0.50;;;20.70;96.00;;;;;;6294467;28;20047;-79
2022/07/06 10:11:40;;;;;;;3.65;0.73;;;20.60;98.50;;;;;;6289096;28;20493;-85
2022/07/06 10:14:44;;;;;;;3.08;0.50;;;21.00;97.50;;;;;;6294555;28;20048;-86
2022/07/06 10:17:48;;;;;;;2.00;0.47;;;21.30;98.20;;;;;;6295118;28;20065;-82
2022/07/06 10:20:50;;;;;;;4.15;0.95;;;21.60;97.30;;;;;;6278915;28;20436;-82
2022/07/06 10:23:54;;;;;;;3.10;0.45;;;21.50;96.30;;;;;;6284668;28;20499;-81
2022/07/06 10:26:56;;;;;;;3.38;0.65;;;21.30;95.80;;;;;;6293701;28;20053;-81
2022/07/06 10:30:00;;;;;;;2.83;0.40;;;21.00;95.90;;;;;;6224851;28;20053;-82
2022/07/06 10:33:02;;;;;;;;;;;21.20;94.70;;;;;;6256255;28;20055;-83
2022/07/06 10:36:04;;;;;;;1.65;0.40;;;21.80;98.10;;;;;;6266666;28;19925;-82
2022/07/06 10:42:49;;;;;;;3.03;0.40;;;22.20;93.80;;;;;;6251348;28;20479;-81
2022/07/06 10:45:56;;;;;;;3.72;0.65;;;22.10;94.40;;;;;;6267311;28;20052;-81
2022/07/06 10:48:59;;;;;;;3.35;0.55;;;22.10;97.10;;;;;;6267533;28;20127;-84
2022/07/06 10:52:00;;;;;;;2.72;0.65;;;22.50;97.20;;;;;;6261521;28;20053;-83
2022/07/06 10:55:02;;;;;;;2.35;0.50;;;23.00;95.70;;;;;;6288521;28;20044;-84
2022/07/06 10:58:05;;;;;;;2.92;0.93;;;23.30;95.40;;;;;;6270549;28;20053;-83
2022/07/06 11:01:10;;;;;;;4.03;0.57;;;23.00;95.40;;;;;;6247363;28;20981;-83
2022/07/06 11:04:11;;;;;;;3.13;0.70;;;23.10;95.10;;;;;;6267821;28;20051;-84
2022/07/06 11:07:15;;;;;;;3.08;0.50;;;23.30;95.70;;;;;;6274667;28;20051;-79
2022/07/06 11:10:17;;;;;;;2.90;0.60;;;23.40;95.90;;;;;;6252092;28;20053;-78
2022/07/06 11:13:28;;;;;;;11.63;1.27;;;23.50;95.70;;;;;;6244018;28;20050;-78
2022/07/06 11:16:36;;;;;;;4.20;0.77;;;23.20;97.30;;;;;;6274397;28;20053;-77
2022/07/06 11:19:38;;;;;;;3.45;0.55;;;23.00;95.80;;;;;;6278009;28;20095;-76
2022/07/06 11:22:40;;;;;;;6.55;1.35;;;22.30;94.90;;;;;;6279538;28;20045;-78
2022/07/06 11:25:42;;;;;;;6.75;0.82;;;22.00;98.80;;;;;;6262956;28;20061;-79
2022/07/06 11:28:48;;;;;;;5.18;0.80;;;22.20;99.70;;;;;;6258228;28;20045;-79
2022/07/06 11:31:58;;;;;;;4.10;0.60;;;22.60;99.40;;;;;;6260054;28;20479;-79
2022/07/06 11:35:00;;;;;;;4.82;0.70;;;23.00;98.80;;;;;;6257323;28;20148;-80
2022/07/06 11:38:26;;;;;;;4.07;0.90;;;23.20;98.20;;;;;;6261922;28;20044;-79
2022/07/06 11:41:28;;;;;;;4.60;1.00;;;23.00;96.20;;;;;;6255982;28;20049;-79
2022/07/06 11:44:30;;;;;;;2.70;0.40;;;22.80;96.80;;;;;;6249843;28;20048;-78
2022/07/06 11:47:34;;;;;;;3.38;0.68;;;22.80;97.50;;;;;;6300309;28;20056;-79
2022/07/06 11:50:36;;;;;;;2.72;0.55;;;22.90;97.90;;;;;;6261903;28;20179;-80
2022/07/06 11:53:42;;;;;;;2.58;0.43;;;22.90;97.90;;;;;;6265820;28;20098;-80
2022/07/06 11:56:49;;;;;;;3.92;0.60;;;22.80;98.50;;;;;;6260524;28;20046;-80
2022/07/06 11:59:52;;;;;;;3.38;0.68;;;22.60;97.40;;;;;;6266359;28;20037;-79
2022/07/06 12:03:02;;;;;;;2.40;0.75;;;22.60;98.30;;;;;;6264333;28;20060;-78
2022/07/06 12:06:05;;;;;;;3.03;0.60;;;22.70;95.50;;;;;;6272376;28;20040;-79
2022/07/06 12:09:07;;;;;;;3.33;0.63;;;22.60;94.50;;;;;;6270806;28;20053;-79
2022/07/06 12:12:11;;;;;;;2.83;0.52;;;22.50;97.90;;;;;;6266250;28;20049;-80
2022/07/06 12:15:13;;;;;;;3.88;0.60;;;22.70;97.80;;;;;;6271939;28;20056;-79
2022/07/06 12:18:17;;;;;;;4.38;0.90;;;22.80;96.20;;;;;;6272039;28;20418;-78
2022/07/06 12:21:21;;;;;;;2.65;0.63;;;22.90;96.30;;;;;;6271650;28;20083;-79
2022/07/06 12:24:25;;;;;;;3.63;0.50;;;22.70;96.60;;;;;;6261193;28;20044;-79
2022/07/06 12:27:27;;;;;;;3.33;0.50;;;22.70;97.10;;;;;;6274978;28;20049;-79
2022/07/06 12:30:29;;;;;;;3.88;0.70;;;22.80;96.80;;;;;;6248967;28;20068;-79
2022/07/06 12:33:33;;;;;;;1.30;0.40;;;23.10;96.70;;;;;;6282024;28;20127;-79
2022/07/06 12:36:43;;;;;;;;;;;23.30;96.40;;;;;;6269370;28;20435;-79
2022/07/06 12:39:47;;;;;;;3.28;0.70;;;23.40;96.60;;;;;;6267957;28;19924;-80
2022/07/06 12:42:49;;;;;;;4.03;0.90;;;23.30;96.10;;;;;;6297085;28;20056;-80
2022/07/06 12:45:51;;;;;;;1.88;0.50;;;23.30;94.80;;;;;;6302997;28;20414;-81
2022/07/06 12:48:55;;;;;;;2.55;0.47;;;23.20;96.00;;;;;;6264232;28;20056;-80
2022/07/06 12:52:00;;;;;;;1.50;0.40;;;23.20;96.00;;;;;;6269233;28;20494;-79
2022/07/06 12:55:02;;;;;;;4.07;0.60;;;23.30;96.30;;;;;;6248320;28;20053;-80
2022/07/06 12:58:04;;;;;;;2.90;0.57;;;23.50;95.20;;;;;;6249047;28;20048;-79
2022/07/06 13:01:06;;;;;;;1.73;0.40;;;23.50;95.60;;;;;;6259607;28;20052;-80
2022/07/06 13:04:10;;;;;;;2.75;0.60;;;23.50;95.70;;;;;;6263332;28;20044;-79
2022/07/06 13:07:20;;;;;;;2.50;0.40;;;23.50;95.40;;;;;;6272981;28;20049;-80
2022/07/06 13:10:22;;;;;;;2.95;0.60;;;23.50;94.90;;;;;;6260448;28;20146;-79
2022/07/06 13:13:24;;;;;;;2.05;0.47;;;23.50;94.70;;;;;;6262784;28;20059;-79
2022/07/06 13:16:31;;;;;;;2.50;0.45;;;23.50;94.80;;;;;;6255284;28;20167;-79
2022/07/06 13:19:35;;;;;;;2.65;0.50;;;23.40;95.30;;;;;;6265389;28;20683;-79
2022/07/06 13:22:37;;;;;;;3.22;0.70;;;23.40;94.90;;;;;;6260960;28;20074;-79
2022/07/06 13:25:39;;;;;;;3.20;0.60;;;23.40;94.40;;;;;;6260688;28;20432;-79
2022/07/06 13:28:41;;;;;;;4.38;0.52;;;23.50;94.70;;;;;;6253949;28;20055;-79
2022/07/06 13:31:43;;;;;;;2.97;0.30;;;23.50;93.50;;;;;;6261281;28;20425;-79
2022/07/06 13:34:46;;;;;;;2.67;0.45;;;23.40;94.10;;;;;;6261202;28;20079;-79
2022/07/06 13:37:50;;;;;;;2.53;0.63;;;23.20;94.00;;;;;;6276390;28;20052;-79
2022/07/06 13:40:52;;;;;;;4.25;0.80;;;23.20;94.30;;;;;;6278301;28;20049;-79
2022/07/06 13:43:54;;;;;;;1.42;0.30;;;23.20;94.20;;;;;;6271787;28;20059;-79
2022/07/06 13:46:56;;;;;;;2.20;0.60;;;23.20;93.80;;;;;;6277603;28;20404;-80
2022/07/06 13:49:59;;;;;;;1.48;0.40;;;23.30;93.70;;;;;;6262564;28;20045;-79
2022/07/06 13:53:04;;;;;;;1.02;0.40;;;23.30;93.60;;;;;;6271515;28;20536;-79
2022/07/06 13:56:07;;;;;;;2.65;0.50;;;23.40;93.50;;;;;;6288206;28;20098;-79
2022/07/06 13:59:09;;;;;;;;;;;23.40;93.40;;;;;;6283728;28;20049;-78
2022/07/06 14:02:11;;;;;;;3.42;0.60;;;23.30;93.40;;;;;;6256145;28;19958;-79
2022/07/06 14:05:14;;;;;;;1.98;0.57;;;23.30;93.50;;;;;;6261889;28;20080;-79
2022/07/06 14:08:16;;;;;;;2.35;0.65;;;23.20;93.40;;;;;;6282004;28;20060;-79
2022/07/06 14:11:19;;;;;;;1.65;0.50;;;23.20;93.60;;;;;;6262286;28;20041;-78
2022/07/06 14:14:21;;;;;;;1.88;0.45;;;23.20;93.60;;;;;;6264799;28;20059;-78
2022/07/06 14:17:23;;;;;;;1.92;0.63;;;23.10;93.50;;;;;;6262077;28;20441;-79
2022/07/06 14:20:27;;;;;;;2.85;0.60;;;23.10;93.70;;;;;;6294616;28;20492;-79
2022/07/06 14:23:29;;;;;;;;;;;23.20;93.30;;;;;;6254055;28;20052;-79
2022/07/06 14:26:31;;;;;;;4.70;1.02;;;23.20;93.40;;;;;;6265434;28;19928;-78
2022/07/06 14:29:34;;;;;;;3.83;0.40;;;23.10;92.70;;;;;;6269551;28;20504;-78
2022/07/06 14:32:35;;;;;;;2.08;0.50;;;23.10;93.30;;;;;;6270177;28;20536;-79
2022/07/06 14:35:41;;;;;;;1.70;0.40;;;22.90;93.80;;;;;;6257185;28;20050;-78
2022/07/06 14:38:43;;;;;;;1.58;0.50;;;22.90;93.50;;;;;;6259798;28;20104;-78
2022/07/06 14:41:45;;;;;;;1.92;0.50;;;22.90;93.40;;;;;;6269457;28;20448;-78
2022/07/06 14:44:47;;;;;;;1.50;0.32;;;22.90;93.60;;;;;;6255356;28;20514;-78
2022/07/06 14:47:49;;;;;;;1.95;0.40;;;22.90;93.30;;;;;;6259499;28;20418;-77
2022/07/06 14:50:52;;;;;;;2.05;0.60;;;23.00;93.30;;;;;;6251796;28;20053;-78
2022/07/06 14:53:54;;;;;;;3.08;0.60;;;22.90;93.30;;;;;;6263501;28;20059;-78
2022/07/06 14:56:56;;;;;;;2.95;0.55;;;22.90;93.40;;;;;;6261555;28;20114;-77
2022/07/06 14:59:58;;;;;;;2.75;0.70;;;22.90;93.40;;;;;;6290068;28;20045;-78
2022/07/06 15:03:00;;;;;;;2.70;0.40;;;23.00;93.40;;;;;;6265662;28;20478;-78
2022/07/06 15:06:03;;;;;;;2.25;0.40;;;22.90;93.50;;;;;;6252836;28;20071;-78
2022/07/06 15:09:05;;;;;;;2.20;0.63;;;22.70;93.60;;;;;;6249738;28;20072;-78
2022/07/06 15:12:08;;;;;;;4.07;1.20;;;22.80;93.60;;;;;;6266197;28;20045;-78
2022/07/06 15:15:11;;;;;;;1.70;0.63;;;22.80;93.40;;;;;;6259729;28;20053;-79
2022/07/06 15:18:13;;;;;;;1.55;0.40;;;22.70;93.60;;;;;;6266836;28;20045;-79
2022/07/06 15:21:16;;;;;;;1.80;0.40;;;22.50;94.00;;;;;;6270428;28;20053;-80
2022/07/06 15:24:18;;;;;;;2.90;0.50;;;22.40;94.20;;;;;;6273594;28;20056;-80
2022/07/06 15:27:20;;;;;;;2.25;0.40;;;22.40;93.90;;;;;;6273812;28;20067;-79
2022/07/06 15:30:24;;;;;;;0.90;0.22;;;22.40;94.20;;;;;;6290556;28;20061;-79
2022/07/06 15:33:26;;;;;;;3.47;0.80;;;22.50;94.10;;;;;;6286423;28;20045;-78
2022/07/06 15:36:29;;;;;;;2.58;0.70;;;22.30;94.30;;;;;;6299247;28;20515;-82
2022/07/06 15:39:31;;;;;;;4.25;1.10;;;22.30;94.60;;;;;;6299246;28;20078;-87
2022/07/06 15:42:33;;;;;;;2.58;0.50;;;22.30;94.50;;;;;;6285903;28;20045;-78
2022/07/06 15:45:35;;;;;;;2.78;0.65;;;22.20;94.60;;;;;;6274408;28;20060;-80
2022/07/06 15:48:38;;;;;;;2.65;0.75;;;22.20;94.70;;;;;;6273935;28;20048;-83
2022/07/06 15:51:41;;;;;;;2.77;0.60;;;22.20;94.70;;;;;;6250555;28;20048;-79
2022/07/06 15:54:43;;;;;;;2.55;0.57;;;22.20;94.70;;;;;;6273999;28;20075;-82
2022/07/06 15:57:45;;;;;;;3.72;0.70;;;22.20;94.70;;;;;;6272820;28;20079;-76
2022/07/06 16:00:47;;;;;;;1.73;0.43;;;22.20;95.00;;;;;;6270522;28;20049;-79